sensor_id;sensor_type;location;lat;lon;timestamp;P1;durP1;ratioP1;P2;durP2;ratioP2
3083;SDS011;1552;51.952;7.618;2023-08-12T00:01:32;16.00;;;6.07;;
3083;SDS011;1552;51.952;7.618;2023-08-12T00:03:58;11.27;;;5.72;;
3083;SDS011;1552;51.952;7.618;2023-08-12T00:06:24;10.80;;;6.65;;
3083;SDS011;1552;51.952;7.618;2023-08-12T00:08:51;10.68;;;6.85;;
3083;SDS011;1552;51.952;7.618;2023-08-12T00:11:17;14.23;;;7.18;;
3083;SDS011;1552;51.952;7.618;2023-08-12T00:13:43;12.35;;;5.40;;
3083;SDS011;1552;51.952;7.618;2023-08-12T00:16:11;12.60;;;6.55;;
3083;SDS011;1552;51.952;7.618;2023-08-12T00:18:37;10.20;;;6.32;;
3083;SDS011;1552;51.952;7.618;2023-08-12T00:21:06;17.13;;;7.80;;
3083;SDS011;1552;51.952;7.618;2023-08-12T00:23:32;10.02;;;6.72;;
3083;SDS011;1552;51.952;7.618;2023-08-12T00:25:58;10.30;;;6.45;;
3083;SDS011;1552;51.952;7.618;2023-08-12T00:28:25;10.35;;;6.65;;
3083;SDS011;1552;51.952;7.618;2023-08-12T00:30:51;16.65;;;7.57;;
3083;SDS011;1552;51.952;7.618;2023-08-12T00:33:19;12.35;;;6.70;;
3083;SDS011;1552;51.952;7.618;2023-08-12T00:35:45;12.52;;;7.03;;
3083;SDS011;1552;51.952;7.618;2023-08-12T00:38:11;13.55;;;6.47;;
3083;SDS011;1552;51.952;7.618;2023-08-12T00:40:38;11.38;;;6.53;;
3083;SDS011;1552;51.952;7.618;2023-08-12T00:43:04;10.57;;;6.38;;
3083;SDS011;1552;51.952;7.618;2023-08-12T00:45:30;13.68;;;6.32;;
3083;SDS011;1552;51.952;7.618;2023-08-12T00:47:57;12.45;;;6.38;;
3083;SDS011;1552;51.952;7.618;2023-08-12T00:50:25;8.65;;;6.47;;
3083;SDS011;1552;51.952;7.618;2023-08-12T00:52:51;9.95;;;6.50;;
3083;SDS011;1552;51.952;7.618;2023-08-12T00:55:17;11.70;;;6.20;;
3083;SDS011;1552;51.952;7.618;2023-08-12T00:57:44;17.88;;;6.55;;
3083;SDS011;1552;51.952;7.618;2023-08-12T01:00:11;9.07;;;5.90;;
3083;SDS011;1552;51.952;7.618;2023-08-12T01:02:38;10.43;;;5.75;;
3083;SDS011;1552;51.952;7.618;2023-08-12T01:05:04;8.32;;;5.35;;
3083;SDS011;1552;51.952;7.618;2023-08-12T01:07:32;9.85;;;5.75;;
3083;SDS011;1552;51.952;7.618;2023-08-12T01:09:59;9.60;;;5.35;;
3083;SDS011;1552;51.952;7.618;2023-08-12T01:12:26;8.43;;;4.57;;
3083;SDS011;1552;51.952;7.618;2023-08-12T01:14:56;8.93;;;5.65;;
3083;SDS011;1552;51.952;7.618;2023-08-12T01:17:24;7.85;;;5.55;;
3083;SDS011;1552;51.952;7.618;2023-08-12T01:19:52;8.63;;;5.22;;
3083;SDS011;1552;51.952;7.618;2023-08-12T01:22:19;5.65;;;4.68;;
3083;SDS011;1552;51.952;7.618;2023-08-12T01:24:48;7.70;;;4.95;;
3083;SDS011;1552;51.952;7.618;2023-08-12T01:27:14;7.53;;;4.65;;
3083;SDS011;1552;51.952;7.618;2023-08-12T01:29:41;7.22;;;4.70;;
3083;SDS011;1552;51.952;7.618;2023-08-12T01:32:11;8.45;;;5.72;;
3083;SDS011;1552;51.952;7.618;2023-08-12T01:34:39;10.02;;;5.43;;
3083;SDS011;1552;51.952;7.618;2023-08-12T01:37:07;7.97;;;5.15;;
3083;SDS011;1552;51.952;7.618;2023-08-12T01:39:34;11.50;;;6.38;;
3083;SDS011;1552;51.952;7.618;2023-08-12T01:42:03;8.35;;;4.82;;
3083;SDS011;1552;51.952;7.618;2023-08-12T01:44:29;8.32;;;5.57;;
3083;SDS011;1552;51.952;7.618;2023-08-12T01:46:56;5.88;;;4.55;;
3083;SDS011;1552;51.952;7.618;2023-08-12T01:49:22;7.68;;;5.03;;
3083;SDS011;1552;51.952;7.618;2023-08-12T01:51:49;5.68;;;4.75;;
3083;SDS011;1552;51.952;7.618;2023-08-12T01:54:16;9.00;;;4.43;;
3083;SDS011;1552;51.952;7.618;2023-08-12T01:56:42;9.20;;;5.75;;
3083;SDS011;1552;51.952;7.618;2023-08-12T01:59:10;7.28;;;4.95;;
3083;SDS011;1552;51.952;7.618;2023-08-12T02:01:36;7.18;;;5.47;;
3083;SDS011;1552;51.952;7.618;2023-08-12T02:04:03;7.47;;;4.82;;
3083;SDS011;1552;51.952;7.618;2023-08-12T02:06:29;7.68;;;5.57;;
3083;SDS011;1552;51.952;7.618;2023-08-12T02:08:56;11.60;;;6.25;;
3083;SDS011;1552;51.952;7.618;2023-08-12T02:11:22;9.15;;;5.40;;
3083;SDS011;1552;51.952;7.618;2023-08-12T02:13:48;10.23;;;5.20;;
3083;SDS011;1552;51.952;7.618;2023-08-12T02:16:16;12.20;;;6.43;;
3083;SDS011;1552;51.952;7.618;2023-08-12T02:18:42;8.40;;;5.32;;
3083;SDS011;1552;51.952;7.618;2023-08-12T02:21:09;10.10;;;6.13;;
3083;SDS011;1552;51.952;7.618;2023-08-12T02:23:35;10.05;;;6.68;;
3083;SDS011;1552;51.952;7.618;2023-08-12T02:26:01;10.57;;;5.65;;
3083;SDS011;1552;51.952;7.618;2023-08-12T02:28:28;9.23;;;6.43;;
3083;SDS011;1552;51.952;7.618;2023-08-12T02:30:54;7.10;;;4.70;;
3083;SDS011;1552;51.952;7.618;2023-08-12T02:33:22;9.20;;;6.28;;
3083;SDS011;1552;51.952;7.618;2023-08-12T02:35:48;7.10;;;5.57;;
3083;SDS011;1552;51.952;7.618;2023-08-12T02:38:18;9.60;;;6.90;;
3083;SDS011;1552;51.952;7.618;2023-08-12T02:40:47;8.75;;;6.20;;
3083;SDS011;1552;51.952;7.618;2023-08-12T02:43:13;9.35;;;6.25;;
3083;SDS011;1552;51.952;7.618;2023-08-12T02:45:39;9.73;;;6.60;;
3083;SDS011;1552;51.952;7.618;2023-08-12T02:48:06;10.45;;;5.88;;
3083;SDS011;1552;51.952;7.618;2023-08-12T02:50:33;9.30;;;6.30;;
3083;SDS011;1552;51.952;7.618;2023-08-12T02:53:00;17.17;;;6.60;;
3083;SDS011;1552;51.952;7.618;2023-08-12T02:55:26;10.20;;;6.60;;
3083;SDS011;1552;51.952;7.618;2023-08-12T02:57:53;12.13;;;6.95;;
3083;SDS011;1552;51.952;7.618;2023-08-12T03:00:19;10.65;;;6.60;;
3083;SDS011;1552;51.952;7.618;2023-08-12T03:02:46;9.70;;;6.57;;
3083;SDS011;1552;51.952;7.618;2023-08-12T03:05:12;10.18;;;6.18;;
3083;SDS011;1552;51.952;7.618;2023-08-12T03:07:40;16.92;;;7.28;;
3083;SDS011;1552;51.952;7.618;2023-08-12T03:10:07;12.80;;;7.28;;
3083;SDS011;1552;51.952;7.618;2023-08-12T03:12:33;12.35;;;7.60;;
3083;SDS011;1552;51.952;7.618;2023-08-12T03:15:00;9.63;;;6.90;;
3083;SDS011;1552;51.952;7.618;2023-08-12T03:17:26;11.18;;;6.20;;
3083;SDS011;1552;51.952;7.618;2023-08-12T03:19:53;12.13;;;6.68;;
3083;SDS011;1552;51.952;7.618;2023-08-12T03:22:20;12.05;;;6.78;;
3083;SDS011;1552;51.952;7.618;2023-08-12T03:24:48;9.93;;;7.13;;
3083;SDS011;1552;51.952;7.618;2023-08-12T03:27:15;12.38;;;6.75;;
3083;SDS011;1552;51.952;7.618;2023-08-12T03:29:41;11.38;;;7.65;;
3083;SDS011;1552;51.952;7.618;2023-08-12T03:32:07;11.15;;;7.32;;
3083;SDS011;1552;51.952;7.618;2023-08-12T03:34:34;9.23;;;6.57;;
3083;SDS011;1552;51.952;7.618;2023-08-12T03:37:00;11.63;;;7.68;;
3083;SDS011;1552;51.952;7.618;2023-08-12T03:39:26;10.15;;;6.30;;
3083;SDS011;1552;51.952;7.618;2023-08-12T03:41:54;10.73;;;7.40;;
3083;SDS011;1552;51.952;7.618;2023-08-12T03:44:20;11.68;;;8.10;;
3083;SDS011;1552;51.952;7.618;2023-08-12T03:46:47;10.13;;;7.57;;
3083;SDS011;1552;51.952;7.618;2023-08-12T03:49:13;10.98;;;7.72;;
3083;SDS011;1552;51.952;7.618;2023-08-12T03:51:39;12.77;;;9.02;;
3083;SDS011;1552;51.952;7.618;2023-08-12T03:54:06;12.73;;;8.32;;
3083;SDS011;1552;51.952;7.618;2023-08-12T03:56:32;16.60;;;9.02;;
3083;SDS011;1552;51.952;7.618;2023-08-12T03:59:00;11.73;;;7.72;;
3083;SDS011;1552;51.952;7.618;2023-08-12T04:01:26;13.98;;;7.53;;
3083;SDS011;1552;51.952;7.618;2023-08-12T04:03:52;12.73;;;7.97;;
3083;SDS011;1552;51.952;7.618;2023-08-12T04:06:19;12.35;;;7.70;;
3083;SDS011;1552;51.952;7.618;2023-08-12T04:08:45;12.23;;;7.55;;
3083;SDS011;1552;51.952;7.618;2023-08-12T04:11:11;11.43;;;8.50;;
3083;SDS011;1552;51.952;7.618;2023-08-12T04:13:38;17.13;;;9.65;;
3083;SDS011;1552;51.952;7.618;2023-08-12T04:16:05;12.00;;;8.65;;
3083;SDS011;1552;51.952;7.618;2023-08-12T04:18:32;10.73;;;8.38;;
3083;SDS011;1552;51.952;7.618;2023-08-12T04:20:58;17.55;;;8.77;;
3083;SDS011;1552;51.952;7.618;2023-08-12T04:23:24;23.30;;;9.77;;
3083;SDS011;1552;51.952;7.618;2023-08-12T04:25:52;17.85;;;10.43;;
3083;SDS011;1552;51.952;7.618;2023-08-12T04:28:18;15.45;;;10.77;;
3083;SDS011;1552;51.952;7.618;2023-08-12T04:30:45;16.92;;;10.32;;
3083;SDS011;1552;51.952;7.618;2023-08-12T04:33:13;14.60;;;9.27;;
3083;SDS011;1552;51.952;7.618;2023-08-12T04:35:40;19.60;;;11.02;;
3083;SDS011;1552;51.952;7.618;2023-08-12T04:38:06;18.38;;;11.50;;
3083;SDS011;1552;51.952;7.618;2023-08-12T04:40:33;16.00;;;10.48;;
3083;SDS011;1552;51.952;7.618;2023-08-12T04:42:59;16.08;;;10.15;;
3083;SDS011;1552;51.952;7.618;2023-08-12T04:45:26;18.58;;;10.10;;
3083;SDS011;1552;51.952;7.618;2023-08-12T04:47:53;14.25;;;10.35;;
3083;SDS011;1552;51.952;7.618;2023-08-12T04:50:20;18.52;;;11.00;;
3083;SDS011;1552;51.952;7.618;2023-08-12T04:52:47;18.50;;;12.18;;
3083;SDS011;1552;51.952;7.618;2023-08-12T04:55:13;14.65;;;10.63;;
3083;SDS011;1552;51.952;7.618;2023-08-12T04:57:39;17.70;;;11.07;;
3083;SDS011;1552;51.952;7.618;2023-08-12T05:00:06;21.42;;;11.45;;
3083;SDS011;1552;51.952;7.618;2023-08-12T05:02:33;17.77;;;11.73;;
3083;SDS011;1552;51.952;7.618;2023-08-12T05:04:59;19.05;;;11.57;;
3083;SDS011;1552;51.952;7.618;2023-08-12T05:07:27;17.92;;;11.73;;
3083;SDS011;1552;51.952;7.618;2023-08-12T05:09:53;17.33;;;11.25;;
3083;SDS011;1552;51.952;7.618;2023-08-12T05:12:20;17.67;;;11.45;;
3083;SDS011;1552;51.952;7.618;2023-08-12T05:14:46;20.10;;;11.35;;
3083;SDS011;1552;51.952;7.618;2023-08-12T05:17:12;18.02;;;11.23;;
3083;SDS011;1552;51.952;7.618;2023-08-12T05:19:38;25.08;;;11.85;;
3083;SDS011;1552;51.952;7.618;2023-08-12T05:22:05;20.92;;;11.60;;
3083;SDS011;1552;51.952;7.618;2023-08-12T05:24:32;16.02;;;11.45;;
3083;SDS011;1552;51.952;7.618;2023-08-12T05:26:59;18.80;;;10.68;;
3083;SDS011;1552;51.952;7.618;2023-08-12T05:29:25;18.67;;;11.70;;
3083;SDS011;1552;51.952;7.618;2023-08-12T05:31:52;18.83;;;11.13;;
3083;SDS011;1552;51.952;7.618;2023-08-12T05:34:18;18.10;;;11.02;;
3083;SDS011;1552;51.952;7.618;2023-08-12T05:36:44;17.65;;;11.30;;
3083;SDS011;1552;51.952;7.618;2023-08-12T05:39:10;16.52;;;11.68;;
3083;SDS011;1552;51.952;7.618;2023-08-12T05:41:38;17.42;;;11.93;;
3083;SDS011;1552;51.952;7.618;2023-08-12T05:44:05;20.27;;;12.85;;
3083;SDS011;1552;51.952;7.618;2023-08-12T05:46:31;19.75;;;13.02;;
3083;SDS011;1552;51.952;7.618;2023-08-12T05:48:58;17.40;;;11.40;;
3083;SDS011;1552;51.952;7.618;2023-08-12T05:51:24;24.23;;;13.50;;
3083;SDS011;1552;51.952;7.618;2023-08-12T05:53:51;21.30;;;13.07;;
3083;SDS011;1552;51.952;7.618;2023-08-12T05:56:17;20.13;;;13.13;;
3083;SDS011;1552;51.952;7.618;2023-08-12T05:58:45;23.23;;;13.80;;
3083;SDS011;1552;51.952;7.618;2023-08-12T06:01:11;21.25;;;13.75;;
3083;SDS011;1552;51.952;7.618;2023-08-12T06:03:37;24.42;;;15.30;;
3083;SDS011;1552;51.952;7.618;2023-08-12T06:06:04;25.45;;;13.25;;
3083;SDS011;1552;51.952;7.618;2023-08-12T06:08:30;18.65;;;12.32;;
3083;SDS011;1552;51.952;7.618;2023-08-12T06:10:56;19.42;;;12.63;;
3083;SDS011;1552;51.952;7.618;2023-08-12T06:13:23;23.10;;;12.18;;
3083;SDS011;1552;51.952;7.618;2023-08-12T06:15:50;22.10;;;12.90;;
3083;SDS011;1552;51.952;7.618;2023-08-12T06:18:17;25.30;;;11.98;;
3083;SDS011;1552;51.952;7.618;2023-08-12T06:20:43;20.08;;;13.00;;
3083;SDS011;1552;51.952;7.618;2023-08-12T06:23:09;18.23;;;11.65;;
3083;SDS011;1552;51.952;7.618;2023-08-12T06:25:36;20.30;;;12.02;;
3083;SDS011;1552;51.952;7.618;2023-08-12T06:28:02;17.42;;;11.77;;
3083;SDS011;1552;51.952;7.618;2023-08-12T06:30:29;19.02;;;11.90;;
3083;SDS011;1552;51.952;7.618;2023-08-12T06:32:57;19.70;;;11.45;;
3083;SDS011;1552;51.952;7.618;2023-08-12T06:35:23;20.40;;;12.40;;
3083;SDS011;1552;51.952;7.618;2023-08-12T06:37:49;17.42;;;11.57;;
3083;SDS011;1552;51.952;7.618;2023-08-12T06:40:16;18.98;;;12.02;;
3083;SDS011;1552;51.952;7.618;2023-08-12T06:42:42;17.30;;;10.82;;
3083;SDS011;1552;51.952;7.618;2023-08-12T06:45:09;14.80;;;11.30;;
3083;SDS011;1552;51.952;7.618;2023-08-12T06:47:35;15.18;;;10.60;;
3083;SDS011;1552;51.952;7.618;2023-08-12T06:50:03;16.52;;;11.40;;
3083;SDS011;1552;51.952;7.618;2023-08-12T06:52:30;17.67;;;12.18;;
3083;SDS011;1552;51.952;7.618;2023-08-12T06:54:56;16.75;;;10.95;;
3083;SDS011;1552;51.952;7.618;2023-08-12T06:57:22;20.77;;;11.48;;
3083;SDS011;1552;51.952;7.618;2023-08-12T06:59:49;15.68;;;11.05;;
3083;SDS011;1552;51.952;7.618;2023-08-12T07:02:15;16.20;;;11.20;;
3083;SDS011;1552;51.952;7.618;2023-08-12T07:04:41;19.08;;;10.77;;
3083;SDS011;1552;51.952;7.618;2023-08-12T07:07:09;19.25;;;11.23;;
3083;SDS011;1552;51.952;7.618;2023-08-12T07:09:35;13.45;;;8.82;;
3083;SDS011;1552;51.952;7.618;2023-08-12T07:12:02;21.10;;;10.30;;
3083;SDS011;1552;51.952;7.618;2023-08-12T07:14:29;16.20;;;9.98;;
3083;SDS011;1552;51.952;7.618;2023-08-12T07:16:55;16.13;;;10.30;;
3083;SDS011;1552;51.952;7.618;2023-08-12T07:19:22;19.25;;;10.52;;
3083;SDS011;1552;51.952;7.618;2023-08-12T07:21:48;16.42;;;10.38;;
3083;SDS011;1552;51.952;7.618;2023-08-12T07:24:16;18.63;;;10.75;;
3083;SDS011;1552;51.952;7.618;2023-08-12T07:26:42;19.88;;;10.98;;
3083;SDS011;1552;51.952;7.618;2023-08-12T07:29:08;20.98;;;9.90;;
3083;SDS011;1552;51.952;7.618;2023-08-12T07:31:35;24.45;;;10.75;;
3083;SDS011;1552;51.952;7.618;2023-08-12T07:34:01;15.48;;;9.88;;
3083;SDS011;1552;51.952;7.618;2023-08-12T07:36:27;14.25;;;9.10;;
3083;SDS011;1552;51.952;7.618;2023-08-12T07:38:54;15.80;;;9.52;;
3083;SDS011;1552;51.952;7.618;2023-08-12T07:41:22;17.92;;;10.20;;
3083;SDS011;1552;51.952;7.618;2023-08-12T07:43:49;13.35;;;9.07;;
3083;SDS011;1552;51.952;7.618;2023-08-12T07:46:15;15.77;;;9.68;;
3083;SDS011;1552;51.952;7.618;2023-08-12T07:48:41;12.95;;;8.57;;
3083;SDS011;1552;51.952;7.618;2023-08-12T07:51:07;14.48;;;9.45;;
3083;SDS011;1552;51.952;7.618;2023-08-12T07:53:34;15.30;;;9.10;;
3083;SDS011;1552;51.952;7.618;2023-08-12T07:56:00;22.48;;;8.43;;
3083;SDS011;1552;51.952;7.618;2023-08-12T07:58:28;14.73;;;9.13;;
3083;SDS011;1552;51.952;7.618;2023-08-12T08:00:54;14.25;;;8.88;;
3083;SDS011;1552;51.952;7.618;2023-08-12T08:03:21;12.32;;;8.43;;
3083;SDS011;1552;51.952;7.618;2023-08-12T08:05:47;13.32;;;8.57;;
3083;SDS011;1552;51.952;7.618;2023-08-12T08:08:13;15.10;;;8.27;;
3083;SDS011;1552;51.952;7.618;2023-08-12T08:10:40;15.55;;;8.32;;
3083;SDS011;1552;51.952;7.618;2023-08-12T08:13:06;9.32;;;7.15;;
3083;SDS011;1552;51.952;7.618;2023-08-12T08:15:34;9.80;;;7.40;;
3083;SDS011;1552;51.952;7.618;2023-08-12T08:18:00;12.77;;;8.88;;
3083;SDS011;1552;51.952;7.618;2023-08-12T08:20:29;10.40;;;6.85;;
3083;SDS011;1552;51.952;7.618;2023-08-12T08:22:55;11.02;;;7.40;;
3083;SDS011;1552;51.952;7.618;2023-08-12T08:25:21;11.57;;;7.20;;
3083;SDS011;1552;51.952;7.618;2023-08-12T08:27:48;15.02;;;7.38;;
3083;SDS011;1552;51.952;7.618;2023-08-12T08:30:14;13.95;;;6.95;;
3083;SDS011;1552;51.952;7.618;2023-08-12T08:32:42;14.25;;;6.72;;
3083;SDS011;1552;51.952;7.618;2023-08-12T08:35:08;11.70;;;6.50;;
3083;SDS011;1552;51.952;7.618;2023-08-12T08:37:35;10.52;;;5.68;;
3083;SDS011;1552;51.952;7.618;2023-08-12T08:40:01;11.50;;;5.72;;
3083;SDS011;1552;51.952;7.618;2023-08-12T08:42:28;8.43;;;5.10;;
3083;SDS011;1552;51.952;7.618;2023-08-12T08:44:55;7.95;;;5.03;;
3083;SDS011;1552;51.952;7.618;2023-08-12T08:47:26;6.68;;;5.30;;
3083;SDS011;1552;51.952;7.618;2023-08-12T08:49:54;7.57;;;5.63;;
3083;SDS011;1552;51.952;7.618;2023-08-12T08:52:21;16.73;;;4.97;;
3083;SDS011;1552;51.952;7.618;2023-08-12T08:54:47;6.70;;;4.68;;
3083;SDS011;1552;51.952;7.618;2023-08-12T08:57:14;7.50;;;4.65;;
3083;SDS011;1552;51.952;7.618;2023-08-12T08:59:41;8.60;;;4.82;;
3083;SDS011;1552;51.952;7.618;2023-08-12T09:02:07;6.00;;;4.15;;
3083;SDS011;1552;51.952;7.618;2023-08-12T09:04:38;10.75;;;4.20;;
3083;SDS011;1552;51.952;7.618;2023-08-12T09:07:05;6.05;;;3.60;;
3083;SDS011;1552;51.952;7.618;2023-08-12T09:09:32;9.00;;;3.88;;
3083;SDS011;1552;51.952;7.618;2023-08-12T09:12:00;9.73;;;3.83;;
3083;SDS011;1552;51.952;7.618;2023-08-12T09:14:26;6.30;;;3.40;;
3083;SDS011;1552;51.952;7.618;2023-08-12T09:16:53;5.18;;;3.53;;
3083;SDS011;1552;51.952;7.618;2023-08-12T09:19:20;6.53;;;2.88;;
3083;SDS011;1552;51.952;7.618;2023-08-12T09:21:51;4.53;;;2.92;;
3083;SDS011;1552;51.952;7.618;2023-08-12T09:24:18;4.75;;;3.15;;
3083;SDS011;1552;51.952;7.618;2023-08-12T09:26:51;5.85;;;3.28;;
3083;SDS011;1552;51.952;7.618;2023-08-12T09:29:17;6.07;;;3.67;;
3083;SDS011;1552;51.952;7.618;2023-08-12T09:31:43;6.38;;;3.90;;
3083;SDS011;1552;51.952;7.618;2023-08-12T09:34:10;6.28;;;3.58;;
3083;SDS011;1552;51.952;7.618;2023-08-12T09:36:36;5.40;;;3.50;;
3083;SDS011;1552;51.952;7.618;2023-08-12T09:39:05;9.18;;;3.47;;
3083;SDS011;1552;51.952;7.618;2023-08-12T09:41:33;4.90;;;3.17;;
3083;SDS011;1552;51.952;7.618;2023-08-12T09:44:01;5.97;;;3.67;;
3083;SDS011;1552;51.952;7.618;2023-08-12T09:46:27;4.22;;;2.97;;
3083;SDS011;1552;51.952;7.618;2023-08-12T09:48:53;5.05;;;4.07;;
3083;SDS011;1552;51.952;7.618;2023-08-12T09:51:20;4.78;;;3.05;;
3083;SDS011;1552;51.952;7.618;2023-08-12T09:53:47;3.15;;;2.83;;
3083;SDS011;1552;51.952;7.618;2023-08-12T09:56:14;4.35;;;2.80;;
3083;SDS011;1552;51.952;7.618;2023-08-12T09:58:44;5.07;;;2.67;;
3083;SDS011;1552;51.952;7.618;2023-08-12T10:01:13;5.05;;;3.35;;
3083;SDS011;1552;51.952;7.618;2023-08-12T10:03:41;5.20;;;3.38;;
3083;SDS011;1552;51.952;7.618;2023-08-12T10:06:09;5.78;;;3.15;;
3083;SDS011;1552;51.952;7.618;2023-08-12T10:08:35;6.45;;;2.88;;
3083;SDS011;1552;51.952;7.618;2023-08-12T10:11:02;5.35;;;3.47;;
3083;SDS011;1552;51.952;7.618;2023-08-12T10:13:28;3.00;;;2.17;;
3083;SDS011;1552;51.952;7.618;2023-08-12T10:15:56;4.75;;;3.05;;
3083;SDS011;1552;51.952;7.618;2023-08-12T10:18:23;4.63;;;3.25;;
3083;SDS011;1552;51.952;7.618;2023-08-12T10:20:50;5.07;;;2.75;;
3083;SDS011;1552;51.952;7.618;2023-08-12T10:23:17;4.57;;;2.55;;
3083;SDS011;1552;51.952;7.618;2023-08-12T10:25:44;4.22;;;2.92;;
3083;SDS011;1552;51.952;7.618;2023-08-12T10:28:10;4.20;;;3.03;;
3083;SDS011;1552;51.952;7.618;2023-08-12T10:30:37;4.35;;;2.65;;
3083;SDS011;1552;51.952;7.618;2023-08-12T10:33:07;2.80;;;2.40;;
3083;SDS011;1552;51.952;7.618;2023-08-12T10:35:40;3.38;;;2.80;;
3083;SDS011;1552;51.952;7.618;2023-08-12T10:38:06;4.30;;;3.00;;
3083;SDS011;1552;51.952;7.618;2023-08-12T10:40:33;6.22;;;2.60;;
3083;SDS011;1552;51.952;7.618;2023-08-12T10:43:00;2.85;;;2.60;;
3083;SDS011;1552;51.952;7.618;2023-08-12T10:45:40;6.13;;;3.03;;
3083;SDS011;1552;51.952;7.618;2023-08-12T10:48:15;3.83;;;3.05;;
3083;SDS011;1552;51.952;7.618;2023-08-12T10:50:43;5.13;;;3.15;;
3083;SDS011;1552;51.952;7.618;2023-08-12T10:53:20;3.92;;;3.47;;
3083;SDS011;1552;51.952;7.618;2023-08-12T10:55:48;4.63;;;3.15;;
3083;SDS011;1552;51.952;7.618;2023-08-12T10:58:23;2.17;;;1.98;;
3083;SDS011;1552;51.952;7.618;2023-08-12T11:00:51;4.82;;;2.47;;
3083;SDS011;1552;51.952;7.618;2023-08-12T11:03:20;4.00;;;2.90;;
3083;SDS011;1552;51.952;7.618;2023-08-12T11:05:46;3.42;;;2.50;;
3083;SDS011;1552;51.952;7.618;2023-08-12T11:08:13;3.80;;;2.28;;
3083;SDS011;1552;51.952;7.618;2023-08-12T11:10:39;3.90;;;2.83;;
3083;SDS011;1552;51.952;7.618;2023-08-12T11:13:05;2.83;;;2.25;;
3083;SDS011;1552;51.952;7.618;2023-08-12T11:15:33;2.17;;;1.83;;
3083;SDS011;1552;51.952;7.618;2023-08-12T11:18:01;4.25;;;2.05;;
3083;SDS011;1552;51.952;7.618;2023-08-12T11:20:29;2.80;;;2.03;;
3083;SDS011;1552;51.952;7.618;2023-08-12T11:22:56;2.60;;;2.03;;
3083;SDS011;1552;51.952;7.618;2023-08-12T11:25:23;2.67;;;2.13;;
3083;SDS011;1552;51.952;7.618;2023-08-12T11:27:50;2.80;;;2.45;;
3083;SDS011;1552;51.952;7.618;2023-08-12T11:30:17;2.22;;;2.03;;
3083;SDS011;1552;51.952;7.618;2023-08-12T11:32:44;3.33;;;2.10;;
3083;SDS011;1552;51.952;7.618;2023-08-12T11:35:11;3.30;;;2.42;;
3083;SDS011;1552;51.952;7.618;2023-08-12T11:37:40;2.30;;;1.92;;
3083;SDS011;1552;51.952;7.618;2023-08-12T11:40:07;2.80;;;2.20;;
3083;SDS011;1552;51.952;7.618;2023-08-12T11:42:35;2.92;;;2.35;;
3083;SDS011;1552;51.952;7.618;2023-08-12T11:45:01;2.72;;;2.38;;
3083;SDS011;1552;51.952;7.618;2023-08-12T11:47:28;4.13;;;2.08;;
3083;SDS011;1552;51.952;7.618;2023-08-12T11:49:54;4.20;;;1.92;;
3083;SDS011;1552;51.952;7.618;2023-08-12T11:52:21;3.90;;;2.28;;
3083;SDS011;1552;51.952;7.618;2023-08-12T11:54:49;2.67;;;2.22;;
3083;SDS011;1552;51.952;7.618;2023-08-12T11:57:16;2.47;;;2.28;;
3083;SDS011;1552;51.952;7.618;2023-08-12T11:59:42;2.45;;;2.25;;
3083;SDS011;1552;51.952;7.618;2023-08-12T12:02:09;2.92;;;2.33;;
3083;SDS011;1552;51.952;7.618;2023-08-12T12:04:36;3.33;;;2.42;;
3083;SDS011;1552;51.952;7.618;2023-08-12T12:07:02;3.38;;;2.92;;
3083;SDS011;1552;51.952;7.618;2023-08-12T12:09:31;3.15;;;2.55;;
3083;SDS011;1552;51.952;7.618;2023-08-12T12:11:59;2.75;;;2.05;;
3083;SDS011;1552;51.952;7.618;2023-08-12T12:14:26;4.40;;;2.70;;
3083;SDS011;1552;51.952;7.618;2023-08-12T12:16:52;3.60;;;2.58;;
3083;SDS011;1552;51.952;7.618;2023-08-12T12:19:19;2.20;;;2.00;;
3083;SDS011;1552;51.952;7.618;2023-08-12T12:21:46;3.92;;;2.40;;
3083;SDS011;1552;51.952;7.618;2023-08-12T12:24:12;3.50;;;2.50;;
3083;SDS011;1552;51.952;7.618;2023-08-12T12:26:39;3.55;;;2.83;;
3083;SDS011;1552;51.952;7.618;2023-08-12T12:29:06;3.38;;;2.95;;
3083;SDS011;1552;51.952;7.618;2023-08-12T12:31:34;3.65;;;2.83;;
3083;SDS011;1552;51.952;7.618;2023-08-12T12:34:00;3.25;;;2.33;;
3083;SDS011;1552;51.952;7.618;2023-08-12T12:36:27;4.72;;;2.63;;
3083;SDS011;1552;51.952;7.618;2023-08-12T12:38:53;3.13;;;2.80;;
3083;SDS011;1552;51.952;7.618;2023-08-12T12:41:19;2.45;;;2.20;;
3083;SDS011;1552;51.952;7.618;2023-08-12T12:43:46;3.72;;;2.15;;
3083;SDS011;1552;51.952;7.618;2023-08-12T12:46:14;3.33;;;2.85;;
3083;SDS011;1552;51.952;7.618;2023-08-12T12:48:40;2.97;;;2.67;;
3083;SDS011;1552;51.952;7.618;2023-08-12T12:51:07;2.40;;;2.20;;
3083;SDS011;1552;51.952;7.618;2023-08-12T12:53:33;2.55;;;2.10;;
3083;SDS011;1552;51.952;7.618;2023-08-12T12:55:59;4.78;;;2.67;;
3083;SDS011;1552;51.952;7.618;2023-08-12T12:58:28;2.90;;;2.53;;
3083;SDS011;1552;51.952;7.618;2023-08-12T13:00:55;4.03;;;2.72;;
3083;SDS011;1552;51.952;7.618;2023-08-12T13:03:22;3.33;;;2.60;;
3083;SDS011;1552;51.952;7.618;2023-08-12T13:05:49;2.28;;;1.98;;
3083;SDS011;1552;51.952;7.618;2023-08-12T13:08:15;2.60;;;2.40;;
3083;SDS011;1552;51.952;7.618;2023-08-12T13:10:42;1.98;;;1.80;;
3083;SDS011;1552;51.952;7.618;2023-08-12T13:13:08;3.75;;;1.83;;
3083;SDS011;1552;51.952;7.618;2023-08-12T13:15:34;2.03;;;1.70;;
3083;SDS011;1552;51.952;7.618;2023-08-12T13:18:01;2.33;;;1.90;;
3083;SDS011;1552;51.952;7.618;2023-08-12T13:20:29;6.97;;;2.78;;
3083;SDS011;1552;51.952;7.618;2023-08-12T13:22:55;2.47;;;1.70;;
3083;SDS011;1552;51.952;7.618;2023-08-12T13:25:22;2.78;;;1.85;;
3083;SDS011;1552;51.952;7.618;2023-08-12T13:27:48;1.70;;;1.58;;
3083;SDS011;1552;51.952;7.618;2023-08-12T13:30:14;2.58;;;1.90;;
3083;SDS011;1552;51.952;7.618;2023-08-12T13:32:40;3.95;;;1.80;;
3083;SDS011;1552;51.952;7.618;2023-08-12T13:35:07;3.10;;;1.67;;
3083;SDS011;1552;51.952;7.618;2023-08-12T13:37:35;2.13;;;1.90;;
3083;SDS011;1552;51.952;7.618;2023-08-12T13:40:01;1.80;;;1.58;;
3083;SDS011;1552;51.952;7.618;2023-08-12T13:42:28;1.92;;;1.58;;
3083;SDS011;1552;51.952;7.618;2023-08-12T13:44:54;1.83;;;1.73;;
3083;SDS011;1552;51.952;7.618;2023-08-12T13:47:21;1.73;;;1.52;;
3083;SDS011;1552;51.952;7.618;2023-08-12T13:49:47;1.05;;;1.02;;
3083;SDS011;1552;51.952;7.618;2023-08-12T13:52:13;1.35;;;1.25;;
3083;SDS011;1552;51.952;7.618;2023-08-12T13:54:41;1.70;;;0.98;;
3083;SDS011;1552;51.952;7.618;2023-08-12T13:57:07;1.70;;;1.15;;
3083;SDS011;1552;51.952;7.618;2023-08-12T13:59:34;1.33;;;1.23;;
3083;SDS011;1552;51.952;7.618;2023-08-12T14:02:00;1.85;;;1.13;;
3083;SDS011;1552;51.952;7.618;2023-08-12T14:04:26;1.40;;;0.90;;
3083;SDS011;1552;51.952;7.618;2023-08-12T14:06:53;1.58;;;1.42;;
3083;SDS011;1552;51.952;7.618;2023-08-12T14:09:19;2.63;;;1.67;;
3083;SDS011;1552;51.952;7.618;2023-08-12T14:11:47;2.05;;;1.52;;
3083;SDS011;1552;51.952;7.618;2023-08-12T14:14:13;2.20;;;1.63;;
3083;SDS011;1552;51.952;7.618;2023-08-12T14:16:39;2.15;;;1.85;;
3083;SDS011;1552;51.952;7.618;2023-08-12T14:19:06;1.75;;;1.42;;
3083;SDS011;1552;51.952;7.618;2023-08-12T14:21:33;1.83;;;1.50;;
3083;SDS011;1552;51.952;7.618;2023-08-12T14:24:00;2.58;;;2.03;;
3083;SDS011;1552;51.952;7.618;2023-08-12T14:26:26;2.25;;;1.33;;
3083;SDS011;1552;51.952;7.618;2023-08-12T14:28:54;0.90;;;0.90;;
3083;SDS011;1552;51.952;7.618;2023-08-12T14:31:20;0.77;;;0.77;;
3083;SDS011;1552;51.952;7.618;2023-08-12T14:33:46;0.95;;;0.95;;
3083;SDS011;1552;51.952;7.618;2023-08-12T14:36:13;1.48;;;0.93;;
3083;SDS011;1552;51.952;7.618;2023-08-12T14:38:39;0.95;;;0.70;;
3083;SDS011;1552;51.952;7.618;2023-08-12T14:41:05;2.05;;;1.00;;
3083;SDS011;1552;51.952;7.618;2023-08-12T14:43:32;0.70;;;0.70;;
3083;SDS011;1552;51.952;7.618;2023-08-12T14:45:59;1.45;;;0.65;;
3083;SDS011;1552;51.952;7.618;2023-08-12T14:48:26;0.50;;;0.50;;
3083;SDS011;1552;51.952;7.618;2023-08-12T14:50:52;1.65;;;0.50;;
3083;SDS011;1552;51.952;7.618;2023-08-12T14:53:18;0.60;;;0.60;;
3083;SDS011;1552;51.952;7.618;2023-08-12T14:55:45;1.30;;;0.98;;
3083;SDS011;1552;51.952;7.618;2023-08-12T14:58:11;0.65;;;0.65;;
3083;SDS011;1552;51.952;7.618;2023-08-12T15:00:37;0.68;;;0.68;;
3083;SDS011;1552;51.952;7.618;2023-08-12T15:03:05;1.40;;;1.13;;